Terminal Aerodrome Forecast
Issued by NWS Cleveland, OH

Home | Current Version | Previous Version | Graphics & Text | Print | Product List | Glossary Off
Versions: 1 2 3 4 5 6 7 8 9 10 11 12 13 14 15 16 17 18 19 20 21

000
FTUS41 KCLE 010800 AAA
TAFMFD
TAF AMD
KMFD 010817Z 0108/0206 18008KT P6SM BKN006
      TEMPO 0108/0109 5SM BR OVC006
     FM010900 20005KT 5SM BR OVC006
      TEMPO 0109/0113 2SM BR OVC003
     FM011500 21012KT P6SM BKN035
     FM011700 20014G20KT P6SM SCT045
     FM020200 22009KT P6SM VCTS BKN045CB OVC120=

USA.gov is the U.S. government's official web portal to all federal, state and local government web resources and services.